sensor_id;sensor_type;location;lat;lon;timestamp;temperature;humidity
26589;DHT22;14235;48.532;8.722;2024-02-15T00:00:41;9.20;99.90
26589;DHT22;14235;48.532;8.722;2024-02-15T00:03:08;9.00;99.90
26589;DHT22;14235;48.532;8.722;2024-02-15T00:05:39;9.50;99.90
26589;DHT22;14235;48.532;8.722;2024-02-15T00:08:05;9.00;99.90
26589;DHT22;14235;48.532;8.722;2024-02-15T00:10:31;9.20;99.90
26589;DHT22;14235;48.532;8.722;2024-02-15T00:12:58;9.00;99.90
26589;DHT22;14235;48.532;8.722;2024-02-15T00:15:23;9.00;99.90
26589;DHT22;14235;48.532;8.722;2024-02-15T00:17:49;8.90;99.90
26589;DHT22;14235;48.532;8.722;2024-02-15T00:20:14;9.50;99.90
26589;DHT22;14235;48.532;8.722;2024-02-15T00:22:41;8.80;99.90
26589;DHT22;14235;48.532;8.722;2024-02-15T00:25:07;9.70;99.90
26589;DHT22;14235;48.532;8.722;2024-02-15T00:27:34;9.00;99.90
26589;DHT22;14235;48.532;8.722;2024-02-15T00:30:01;8.50;99.90
26589;DHT22;14235;48.532;8.722;2024-02-15T00:32:27;9.20;99.90
26589;DHT22;14235;48.532;8.722;2024-02-15T00:34:52;10.00;99.90
26589;DHT22;14235;48.532;8.722;2024-02-15T00:37:19;10.20;99.90
26589;DHT22;14235;48.532;8.722;2024-02-15T00:39:44;9.10;99.90
26589;DHT22;14235;48.532;8.722;2024-02-15T00:42:10;8.80;99.90
26589;DHT22;14235;48.532;8.722;2024-02-15T00:44:36;8.70;99.90
26589;DHT22;14235;48.532;8.722;2024-02-15T00:47:02;8.50;99.90
26589;DHT22;14235;48.532;8.722;2024-02-15T00:49:28;8.80;99.90
26589;DHT22;14235;48.532;8.722;2024-02-15T00:51:53;8.50;99.90
26589;DHT22;14235;48.532;8.722;2024-02-15T00:54:19;8.60;99.90
26589;DHT22;14235;48.532;8.722;2024-02-15T00:56:45;8.40;99.90
26589;DHT22;14235;48.532;8.722;2024-02-15T00:59:10;10.10;99.90
26589;DHT22;14235;48.532;8.722;2024-02-15T01:01:36;8.30;99.90
26589;DHT22;14235;48.532;8.722;2024-02-15T01:04:04;8.40;99.90
26589;DHT22;14235;48.532;8.722;2024-02-15T01:06:29;8.60;99.90
26589;DHT22;14235;48.532;8.722;2024-02-15T01:08:55;8.30;99.90
26589;DHT22;14235;48.532;8.722;2024-02-15T01:11:21;8.60;99.90
26589;DHT22;14235;48.532;8.722;2024-02-15T01:13:46;9.00;99.90
26589;DHT22;14235;48.532;8.722;2024-02-15T01:16:12;9.50;99.90
26589;DHT22;14235;48.532;8.722;2024-02-15T01:18:38;8.40;99.90
26589;DHT22;14235;48.532;8.722;2024-02-15T01:21:04;8.20;99.90
26589;DHT22;14235;48.532;8.722;2024-02-15T01:23:29;8.50;99.90
26589;DHT22;14235;48.532;8.722;2024-02-15T01:25:55;8.80;99.90
26589;DHT22;14235;48.532;8.722;2024-02-15T01:28:20;9.30;99.90
26589;DHT22;14235;48.532;8.722;2024-02-15T01:30:47;8.10;99.90
26589;DHT22;14235;48.532;8.722;2024-02-15T01:33:13;9.30;99.90
26589;DHT22;14235;48.532;8.722;2024-02-15T01:35:38;8.00;99.90
26589;DHT22;14235;48.532;8.722;2024-02-15T01:38:05;8.60;99.90
26589;DHT22;14235;48.532;8.722;2024-02-15T01:40:31;8.10;99.90
26589;DHT22;14235;48.532;8.722;2024-02-15T01:42:57;8.70;99.90
26589;DHT22;14235;48.532;8.722;2024-02-15T01:45:23;7.90;99.90
26589;DHT22;14235;48.532;8.722;2024-02-15T01:47:51;7.90;99.90
26589;DHT22;14235;48.532;8.722;2024-02-15T01:50:17;9.10;99.90
26589;DHT22;14235;48.532;8.722;2024-02-15T01:52:43;8.20;99.90
26589;DHT22;14235;48.532;8.722;2024-02-15T01:55:13;7.70;99.90
26589;DHT22;14235;48.532;8.722;2024-02-15T01:57:40;8.50;99.90
26589;DHT22;14235;48.532;8.722;2024-02-15T02:00:09;7.60;99.90
26589;DHT22;14235;48.532;8.722;2024-02-15T02:02:39;7.90;99.90
26589;DHT22;14235;48.532;8.722;2024-02-15T02:05:06;9.00;99.90
26589;DHT22;14235;48.532;8.722;2024-02-15T02:07:33;7.70;99.90
26589;DHT22;14235;48.532;8.722;2024-02-15T02:09:58;7.60;99.90
26589;DHT22;14235;48.532;8.722;2024-02-15T02:12:24;7.70;99.90
26589;DHT22;14235;48.532;8.722;2024-02-15T02:14:53;7.60;99.90
26589;DHT22;14235;48.532;8.722;2024-02-15T02:17:19;7.50;99.90
26589;DHT22;14235;48.532;8.722;2024-02-15T02:19:45;7.40;99.90
26589;DHT22;14235;48.532;8.722;2024-02-15T02:22:11;7.70;99.90
26589;DHT22;14235;48.532;8.722;2024-02-15T02:25:03;7.40;99.90
26589;DHT22;14235;48.532;8.722;2024-02-15T02:27:32;7.60;99.90
26589;DHT22;14235;48.532;8.722;2024-02-15T02:29:58;7.30;99.90
26589;DHT22;14235;48.532;8.722;2024-02-15T02:32:25;9.00;99.90
26589;DHT22;14235;48.532;8.722;2024-02-15T02:34:51;6.80;99.90
26589;DHT22;14235;48.532;8.722;2024-02-15T02:37:25;7.00;99.90
26589;DHT22;14235;48.532;8.722;2024-02-15T02:39:51;7.40;99.90
26589;DHT22;14235;48.532;8.722;2024-02-15T02:42:17;7.30;99.90
26589;DHT22;14235;48.532;8.722;2024-02-15T02:44:43;7.10;99.90
26589;DHT22;14235;48.532;8.722;2024-02-15T02:47:08;7.10;99.90
26589;DHT22;14235;48.532;8.722;2024-02-15T02:49:35;7.20;99.90
26589;DHT22;14235;48.532;8.722;2024-02-15T02:52:01;7.10;99.90
26589;DHT22;14235;48.532;8.722;2024-02-15T02:54:26;7.40;99.90
26589;DHT22;14235;48.532;8.722;2024-02-15T02:56:53;7.20;99.90
26589;DHT22;14235;48.532;8.722;2024-02-15T02:59:19;7.10;99.90
26589;DHT22;14235;48.532;8.722;2024-02-15T03:01:45;7.10;99.90
26589;DHT22;14235;48.532;8.722;2024-02-15T03:04:10;7.00;99.90
26589;DHT22;14235;48.532;8.722;2024-02-15T03:06:37;7.20;99.90
26589;DHT22;14235;48.532;8.722;2024-02-15T03:09:03;7.00;99.90
26589;DHT22;14235;48.532;8.722;2024-02-15T03:11:32;7.00;99.90
26589;DHT22;14235;48.532;8.722;2024-02-15T03:13:59;7.00;99.90
26589;DHT22;14235;48.532;8.722;2024-02-15T03:16:25;6.90;99.90
26589;DHT22;14235;48.532;8.722;2024-02-15T03:18:51;6.90;99.90
26589;DHT22;14235;48.532;8.722;2024-02-15T03:21:18;6.90;99.90
26589;DHT22;14235;48.532;8.722;2024-02-15T03:23:44;6.90;99.90
26589;DHT22;14235;48.532;8.722;2024-02-15T03:26:09;6.80;99.90
26589;DHT22;14235;48.532;8.722;2024-02-15T03:28:37;6.80;99.90
26589;DHT22;14235;48.532;8.722;2024-02-15T03:31:03;6.70;99.90
26589;DHT22;14235;48.532;8.722;2024-02-15T03:33:29;6.70;99.90
26589;DHT22;14235;48.532;8.722;2024-02-15T03:35:59;6.70;99.90
26589;DHT22;14235;48.532;8.722;2024-02-15T03:38:26;6.70;99.90
26589;DHT22;14235;48.532;8.722;2024-02-15T03:40:52;6.70;99.90
26589;DHT22;14235;48.532;8.722;2024-02-15T03:43:19;6.60;99.90
26589;DHT22;14235;48.532;8.722;2024-02-15T03:45:44;6.80;99.90
26589;DHT22;14235;48.532;8.722;2024-02-15T03:48:10;6.70;99.90
26589;DHT22;14235;48.532;8.722;2024-02-15T03:50:35;6.60;99.90
26589;DHT22;14235;48.532;8.722;2024-02-15T03:53:01;6.60;99.90
26589;DHT22;14235;48.532;8.722;2024-02-15T03:55:27;7.10;99.90
26589;DHT22;14235;48.532;8.722;2024-02-15T03:57:52;6.80;99.90
26589;DHT22;14235;48.532;8.722;2024-02-15T04:00:20;7.20;99.90
26589;DHT22;14235;48.532;8.722;2024-02-15T04:02:46;6.80;99.90
26589;DHT22;14235;48.532;8.722;2024-02-15T04:05:14;6.80;99.90
26589;DHT22;14235;48.532;8.722;2024-02-15T04:07:40;7.30;99.90
26589;DHT22;14235;48.532;8.722;2024-02-15T04:10:06;6.70;99.90
26589;DHT22;14235;48.532;8.722;2024-02-15T04:12:32;7.00;99.90
26589;DHT22;14235;48.532;8.722;2024-02-15T04:14:58;6.70;99.90
26589;DHT22;14235;48.532;8.722;2024-02-15T04:17:32;6.80;99.90
26589;DHT22;14235;48.532;8.722;2024-02-15T04:20:00;7.00;99.90
26589;DHT22;14235;48.532;8.722;2024-02-15T04:22:26;6.60;99.90
26589;DHT22;14235;48.532;8.722;2024-02-15T04:24:52;6.60;99.90
26589;DHT22;14235;48.532;8.722;2024-02-15T04:27:17;6.70;99.90
26589;DHT22;14235;48.532;8.722;2024-02-15T04:29:46;6.60;99.90
26589;DHT22;14235;48.532;8.722;2024-02-15T04:32:12;6.70;99.90
26589;DHT22;14235;48.532;8.722;2024-02-15T04:34:39;6.40;99.90
26589;DHT22;14235;48.532;8.722;2024-02-15T04:37:05;6.60;99.90
26589;DHT22;14235;48.532;8.722;2024-02-15T04:39:35;6.50;99.90
26589;DHT22;14235;48.532;8.722;2024-02-15T04:42:02;8.90;99.90
26589;DHT22;14235;48.532;8.722;2024-02-15T04:44:27;8.30;99.90
26589;DHT22;14235;48.532;8.722;2024-02-15T04:46:54;6.50;99.90
26589;DHT22;14235;48.532;8.722;2024-02-15T04:49:20;6.50;99.90
26589;DHT22;14235;48.532;8.722;2024-02-15T04:51:46;6.60;99.90
26589;DHT22;14235;48.532;8.722;2024-02-15T04:54:13;6.70;99.90
26589;DHT22;14235;48.532;8.722;2024-02-15T04:56:40;7.00;99.90
26589;DHT22;14235;48.532;8.722;2024-02-15T04:59:07;6.50;99.90
26589;DHT22;14235;48.532;8.722;2024-02-15T05:01:41;6.60;99.90
26589;DHT22;14235;48.532;8.722;2024-02-15T05:04:11;7.20;99.90
26589;DHT22;14235;48.532;8.722;2024-02-15T05:06:37;6.60;99.90
26589;DHT22;14235;48.532;8.722;2024-02-15T05:09:04;6.50;99.90
26589;DHT22;14235;48.532;8.722;2024-02-15T05:11:33;7.20;99.90
26589;DHT22;14235;48.532;8.722;2024-02-15T05:14:01;6.60;99.90
26589;DHT22;14235;48.532;8.722;2024-02-15T05:16:27;6.40;99.90
26589;DHT22;14235;48.532;8.722;2024-02-15T05:18:53;6.40;99.90
26589;DHT22;14235;48.532;8.722;2024-02-15T05:21:18;6.40;99.90
26589;DHT22;14235;48.532;8.722;2024-02-15T05:23:45;6.20;99.90
26589;DHT22;14235;48.532;8.722;2024-02-15T05:26:11;6.40;99.90
26589;DHT22;14235;48.532;8.722;2024-02-15T05:28:49;6.30;99.90
26589;DHT22;14235;48.532;8.722;2024-02-15T05:31:19;6.40;99.90
26589;DHT22;14235;48.532;8.722;2024-02-15T05:33:51;6.70;99.90
26589;DHT22;14235;48.532;8.722;2024-02-15T05:36:18;6.30;99.90
26589;DHT22;14235;48.532;8.722;2024-02-15T05:38:51;6.30;99.90
26589;DHT22;14235;48.532;8.722;2024-02-15T05:41:17;6.30;99.90
26589;DHT22;14235;48.532;8.722;2024-02-15T05:43:42;6.20;99.90
26589;DHT22;14235;48.532;8.722;2024-02-15T05:46:09;6.00;99.90
26589;DHT22;14235;48.532;8.722;2024-02-15T05:48:35;6.20;99.90
26589;DHT22;14235;48.532;8.722;2024-02-15T05:51:08;6.00;99.90
26589;DHT22;14235;48.532;8.722;2024-02-15T05:53:35;6.50;99.90
26589;DHT22;14235;48.532;8.722;2024-02-15T05:56:05;6.10;99.90
26589;DHT22;14235;48.532;8.722;2024-02-15T05:58:32;6.40;99.90
26589;DHT22;14235;48.532;8.722;2024-02-15T06:01:02;6.20;99.90
26589;DHT22;14235;48.532;8.722;2024-02-15T06:03:31;6.50;99.90
26589;DHT22;14235;48.532;8.722;2024-02-15T06:06:00;6.20;99.90
26589;DHT22;14235;48.532;8.722;2024-02-15T06:08:30;6.20;99.90
26589;DHT22;14235;48.532;8.722;2024-02-15T06:10:56;6.20;99.90
26589;DHT22;14235;48.532;8.722;2024-02-15T06:13:25;6.10;99.90
26589;DHT22;14235;48.532;8.722;2024-02-15T06:15:51;6.10;99.90
26589;DHT22;14235;48.532;8.722;2024-02-15T06:18:26;6.20;99.90
26589;DHT22;14235;48.532;8.722;2024-02-15T06:20:57;6.50;99.90
26589;DHT22;14235;48.532;8.722;2024-02-15T06:23:24;6.40;99.90
26589;DHT22;14235;48.532;8.722;2024-02-15T06:25:53;6.10;99.90
26589;DHT22;14235;48.532;8.722;2024-02-15T06:28:20;6.20;99.90
26589;DHT22;14235;48.532;8.722;2024-02-15T06:31:09;6.20;99.90
26589;DHT22;14235;48.532;8.722;2024-02-15T06:33:53;6.30;99.90
26589;DHT22;14235;48.532;8.722;2024-02-15T06:36:50;6.10;99.90
26589;DHT22;14235;48.532;8.722;2024-02-15T06:39:35;6.30;99.90
26589;DHT22;14235;48.532;8.722;2024-02-15T06:42:04;6.00;99.90
26589;DHT22;14235;48.532;8.722;2024-02-15T06:44:29;6.00;99.90
26589;DHT22;14235;48.532;8.722;2024-02-15T06:46:55;5.90;99.90
26589;DHT22;14235;48.532;8.722;2024-02-15T06:49:22;5.80;99.90
26589;DHT22;14235;48.532;8.722;2024-02-15T06:51:50;6.00;99.90
26589;DHT22;14235;48.532;8.722;2024-02-15T06:54:16;6.00;99.90
26589;DHT22;14235;48.532;8.722;2024-02-15T06:56:46;6.00;99.90
26589;DHT22;14235;48.532;8.722;2024-02-15T06:59:13;6.00;99.90
26589;DHT22;14235;48.532;8.722;2024-02-15T07:01:43;6.20;99.90
26589;DHT22;14235;48.532;8.722;2024-02-15T07:04:09;5.90;99.90
26589;DHT22;14235;48.532;8.722;2024-02-15T07:06:38;5.80;99.90
26589;DHT22;14235;48.532;8.722;2024-02-15T07:09:05;5.80;99.90
26589;DHT22;14235;48.532;8.722;2024-02-15T07:11:35;6.00;99.90
26589;DHT22;14235;48.532;8.722;2024-02-15T07:14:01;5.90;99.90
26589;DHT22;14235;48.532;8.722;2024-02-15T07:16:27;6.10;99.90
26589;DHT22;14235;48.532;8.722;2024-02-15T07:18:52;6.00;99.90
26589;DHT22;14235;48.532;8.722;2024-02-15T07:21:19;6.50;99.90
26589;DHT22;14235;48.532;8.722;2024-02-15T07:23:48;6.10;99.90
26589;DHT22;14235;48.532;8.722;2024-02-15T07:26:14;6.10;99.90
26589;DHT22;14235;48.532;8.722;2024-02-15T07:28:40;6.50;99.90
26589;DHT22;14235;48.532;8.722;2024-02-15T07:31:06;6.20;99.90
26589;DHT22;14235;48.532;8.722;2024-02-15T07:33:32;6.20;99.90
26589;DHT22;14235;48.532;8.722;2024-02-15T07:36:00;6.30;99.90
26589;DHT22;14235;48.532;8.722;2024-02-15T07:38:26;6.30;99.90
26589;DHT22;14235;48.532;8.722;2024-02-15T07:40:52;6.30;99.90
26589;DHT22;14235;48.532;8.722;2024-02-15T07:43:17;6.20;99.90
26589;DHT22;14235;48.532;8.722;2024-02-15T07:45:43;6.20;99.90
26589;DHT22;14235;48.532;8.722;2024-02-15T07:48:08;6.10;99.90
26589;DHT22;14235;48.532;8.722;2024-02-15T07:50:34;6.20;99.90
26589;DHT22;14235;48.532;8.722;2024-02-15T07:53:03;6.20;99.90
26589;DHT22;14235;48.532;8.722;2024-02-15T07:55:28;6.50;99.90
26589;DHT22;14235;48.532;8.722;2024-02-15T07:57:54;6.30;99.90
26589;DHT22;14235;48.532;8.722;2024-02-15T08:00:21;7.50;99.90
26589;DHT22;14235;48.532;8.722;2024-02-15T08:02:46;6.70;99.90
26589;DHT22;14235;48.532;8.722;2024-02-15T08:05:13;6.10;99.90
26589;DHT22;14235;48.532;8.722;2024-02-15T08:07:44;6.40;99.90
26589;DHT22;14235;48.532;8.722;2024-02-15T08:10:11;6.60;99.90
26589;DHT22;14235;48.532;8.722;2024-02-15T08:12:43;6.20;99.90
26589;DHT22;14235;48.532;8.722;2024-02-15T08:15:10;6.60;99.90
26589;DHT22;14235;48.532;8.722;2024-02-15T08:17:46;6.50;99.90
26589;DHT22;14235;48.532;8.722;2024-02-15T08:20:12;6.30;99.90
26589;DHT22;14235;48.532;8.722;2024-02-15T08:22:39;7.50;99.90
26589;DHT22;14235;48.532;8.722;2024-02-15T08:25:11;6.30;99.90
26589;DHT22;14235;48.532;8.722;2024-02-15T08:27:41;6.20;99.90
26589;DHT22;14235;48.532;8.722;2024-02-15T08:30:14;6.30;99.90
26589;DHT22;14235;48.532;8.722;2024-02-15T08:32:40;6.40;99.90
26589;DHT22;14235;48.532;8.722;2024-02-15T08:35:08;6.50;99.90
26589;DHT22;14235;48.532;8.722;2024-02-15T08:37:35;6.80;99.90
26589;DHT22;14235;48.532;8.722;2024-02-15T08:40:05;6.70;99.90
26589;DHT22;14235;48.532;8.722;2024-02-15T08:42:38;6.90;99.90
26589;DHT22;14235;48.532;8.722;2024-02-15T08:45:04;6.90;99.90
26589;DHT22;14235;48.532;8.722;2024-02-15T08:47:30;7.10;99.90
26589;DHT22;14235;48.532;8.722;2024-02-15T08:49:56;6.90;99.90
26589;DHT22;14235;48.532;8.722;2024-02-15T08:52:21;7.00;99.90
26589;DHT22;14235;48.532;8.722;2024-02-15T08:54:47;7.10;99.90
26589;DHT22;14235;48.532;8.722;2024-02-15T08:57:12;7.20;99.90
26589;DHT22;14235;48.532;8.722;2024-02-15T08:59:39;7.30;99.90
26589;DHT22;14235;48.532;8.722;2024-02-15T09:02:05;7.40;99.90
26589;DHT22;14235;48.532;8.722;2024-02-15T09:04:31;7.30;99.90
26589;DHT22;14235;48.532;8.722;2024-02-15T09:06:56;7.40;99.90
26589;DHT22;14235;48.532;8.722;2024-02-15T09:09:22;7.80;99.90
26589;DHT22;14235;48.532;8.722;2024-02-15T09:11:47;7.70;99.90
26589;DHT22;14235;48.532;8.722;2024-02-15T09:14:13;7.40;99.90
26589;DHT22;14235;48.532;8.722;2024-02-15T09:16:39;8.00;99.90
26589;DHT22;14235;48.532;8.722;2024-02-15T09:19:05;7.70;99.90
26589;DHT22;14235;48.532;8.722;2024-02-15T09:21:31;7.80;99.90
26589;DHT22;14235;48.532;8.722;2024-02-15T09:23:59;9.20;99.90
26589;DHT22;14235;48.532;8.722;2024-02-15T09:26:25;7.80;99.90
26589;DHT22;14235;48.532;8.722;2024-02-15T09:28:50;8.20;99.90
26589;DHT22;14235;48.532;8.722;2024-02-15T09:31:16;8.00;99.90
26589;DHT22;14235;48.532;8.722;2024-02-15T09:33:41;9.00;99.90
26589;DHT22;14235;48.532;8.722;2024-02-15T09:36:07;9.60;99.90
26589;DHT22;14235;48.532;8.722;2024-02-15T09:38:33;8.50;99.90
26589;DHT22;14235;48.532;8.722;2024-02-15T09:40:59;8.20;99.90
26589;DHT22;14235;48.532;8.722;2024-02-15T09:43:24;8.20;99.90
26589;DHT22;14235;48.532;8.722;2024-02-15T09:45:52;8.20;99.90
26589;DHT22;14235;48.532;8.722;2024-02-15T09:48:18;8.40;99.90
26589;DHT22;14235;48.532;8.722;2024-02-15T09:50:45;8.40;99.90
26589;DHT22;14235;48.532;8.722;2024-02-15T09:53:13;8.50;99.90
26589;DHT22;14235;48.532;8.722;2024-02-15T09:55:40;8.50;99.90
26589;DHT22;14235;48.532;8.722;2024-02-15T09:58:07;8.80;99.90
26589;DHT22;14235;48.532;8.722;2024-02-15T10:00:35;9.20;99.90
26589;DHT22;14235;48.532;8.722;2024-02-15T10:03:01;9.00;99.90
26589;DHT22;14235;48.532;8.722;2024-02-15T10:05:28;10.40;99.90
26589;DHT22;14235;48.532;8.722;2024-02-15T10:07:53;8.90;99.90
26589;DHT22;14235;48.532;8.722;2024-02-15T10:10:20;8.70;99.90
26589;DHT22;14235;48.532;8.722;2024-02-15T10:12:47;8.80;99.90
26589;DHT22;14235;48.532;8.722;2024-02-15T10:18:08;9.30;99.90
26589;DHT22;14235;48.532;8.722;2024-02-15T10:20:36;9.20;99.90
26589;DHT22;14235;48.532;8.722;2024-02-15T10:23:13;9.20;99.90
26589;DHT22;14235;48.532;8.722;2024-02-15T10:25:40;9.40;99.90
26589;DHT22;14235;48.532;8.722;2024-02-15T10:28:10;9.40;99.90
26589;DHT22;14235;48.532;8.722;2024-02-15T10:30:37;9.60;99.90
26589;DHT22;14235;48.532;8.722;2024-02-15T10:33:04;9.60;99.90
26589;DHT22;14235;48.532;8.722;2024-02-15T10:35:30;9.60;99.90
26589;DHT22;14235;48.532;8.722;2024-02-15T10:38:08;9.50;99.90
26589;DHT22;14235;48.532;8.722;2024-02-15T10:40:35;9.70;99.90
26589;DHT22;14235;48.532;8.722;2024-02-15T10:43:03;9.40;99.90
26589;DHT22;14235;48.532;8.722;2024-02-15T10:45:31;9.90;99.90
26589;DHT22;14235;48.532;8.722;2024-02-15T10:47:56;9.50;99.90
26589;DHT22;14235;48.532;8.722;2024-02-15T10:50:23;10.00;99.90
26589;DHT22;14235;48.532;8.722;2024-02-15T10:52:55;9.90;99.90
26589;DHT22;14235;48.532;8.722;2024-02-15T10:55:38;10.20;99.90
26589;DHT22;14235;48.532;8.722;2024-02-15T10:58:07;10.30;99.90
26589;DHT22;14235;48.532;8.722;2024-02-15T11:00:33;10.10;99.90
26589;DHT22;14235;48.532;8.722;2024-02-15T11:03:04;10.50;99.90
26589;DHT22;14235;48.532;8.722;2024-02-15T11:05:34;10.60;99.90
26589;DHT22;14235;48.532;8.722;2024-02-15T11:08:08;10.70;99.90
26589;DHT22;14235;48.532;8.722;2024-02-15T11:10:35;10.60;99.90
26589;DHT22;14235;48.532;8.722;2024-02-15T11:13:02;10.80;99.90
26589;DHT22;14235;48.532;8.722;2024-02-15T11:15:44;11.10;99.90
26589;DHT22;14235;48.532;8.722;2024-02-15T11:18:44;11.10;99.90
26589;DHT22;14235;48.532;8.722;2024-02-15T11:21:11;11.40;99.90
26589;DHT22;14235;48.532;8.722;2024-02-15T11:23:37;11.40;99.90
26589;DHT22;14235;48.532;8.722;2024-02-15T11:26:03;11.50;99.90
26589;DHT22;14235;48.532;8.722;2024-02-15T11:30:56;12.80;99.90
26589;DHT22;14235;48.532;8.722;2024-02-15T11:33:28;11.80;99.90
26589;DHT22;14235;48.532;8.722;2024-02-15T11:36:11;12.00;99.90
26589;DHT22;14235;48.532;8.722;2024-02-15T11:38:40;12.10;99.90
26589;DHT22;14235;48.532;8.722;2024-02-15T11:41:09;12.10;99.90
26589;DHT22;14235;48.532;8.722;2024-02-15T11:46:20;12.40;99.90
26589;DHT22;14235;48.532;8.722;2024-02-15T11:48:49;13.20;99.90
26589;DHT22;14235;48.532;8.722;2024-02-15T11:51:32;13.50;99.90
26589;DHT22;14235;48.532;8.722;2024-02-15T11:54:03;12.70;99.90
26589;DHT22;14235;48.532;8.722;2024-02-15T11:56:55;12.70;99.90
26589;DHT22;14235;48.532;8.722;2024-02-15T11:59:38;12.80;99.90
26589;DHT22;14235;48.532;8.722;2024-02-15T12:02:08;13.10;99.90
26589;DHT22;14235;48.532;8.722;2024-02-15T12:04:53;13.10;99.90
26589;DHT22;14235;48.532;8.722;2024-02-15T12:07:50;13.20;99.90
26589;DHT22;14235;48.532;8.722;2024-02-15T12:10:34;13.50;99.90
26589;DHT22;14235;48.532;8.722;2024-02-15T12:13:19;13.00;99.90
26589;DHT22;14235;48.532;8.722;2024-02-15T12:16:03;12.90;99.90
26589;DHT22;14235;48.532;8.722;2024-02-15T12:18:48;13.00;99.90
26589;DHT22;14235;48.532;8.722;2024-02-15T12:21:21;13.00;99.90
26589;DHT22;14235;48.532;8.722;2024-02-15T12:23:48;13.90;99.90
26589;DHT22;14235;48.532;8.722;2024-02-15T12:26:19;14.00;99.90
26589;DHT22;14235;48.532;8.722;2024-02-15T12:28:49;13.00;99.90
26589;DHT22;14235;48.532;8.722;2024-02-15T12:31:15;13.40;99.90
26589;DHT22;14235;48.532;8.722;2024-02-15T12:33:40;14.00;99.90
26589;DHT22;14235;48.532;8.722;2024-02-15T12:36:07;13.20;99.90
26589;DHT22;14235;48.532;8.722;2024-02-15T12:38:33;13.20;99.90
26589;DHT22;14235;48.532;8.722;2024-02-15T12:41:17;13.20;99.90
26589;DHT22;14235;48.532;8.722;2024-02-15T12:43:43;13.30;99.90
26589;DHT22;14235;48.532;8.722;2024-02-15T12:46:09;14.40;99.90
26589;DHT22;14235;48.532;8.722;2024-02-15T12:48:34;14.00;99.90
26589;DHT22;14235;48.532;8.722;2024-02-15T12:51:13;13.50;99.90
26589;DHT22;14235;48.532;8.722;2024-02-15T12:53:40;13.40;99.90
26589;DHT22;14235;48.532;8.722;2024-02-15T12:56:07;14.40;99.90
26589;DHT22;14235;48.532;8.722;2024-02-15T12:58:34;14.50;99.90
26589;DHT22;14235;48.532;8.722;2024-02-15T13:01:00;14.40;99.90
26589;DHT22;14235;48.532;8.722;2024-02-15T13:03:27;13.30;99.90
26589;DHT22;14235;48.532;8.722;2024-02-15T13:05:52;14.60;99.90
26589;DHT22;14235;48.532;8.722;2024-02-15T13:08:18;13.70;99.90
26589;DHT22;14235;48.532;8.722;2024-02-15T13:10:45;13.50;99.90
26589;DHT22;14235;48.532;8.722;2024-02-15T13:13:12;13.80;99.90
26589;DHT22;14235;48.532;8.722;2024-02-15T13:15:41;14.40;99.90
26589;DHT22;14235;48.532;8.722;2024-02-15T13:18:07;13.50;99.90
26589;DHT22;14235;48.532;8.722;2024-02-15T13:20:36;13.50;99.90
26589;DHT22;14235;48.532;8.722;2024-02-15T13:23:04;14.10;99.90
26589;DHT22;14235;48.532;8.722;2024-02-15T13:25:37;14.10;99.90
26589;DHT22;14235;48.532;8.722;2024-02-15T13:28:05;13.60;99.90
26589;DHT22;14235;48.532;8.722;2024-02-15T13:30:32;13.60;99.90
26589;DHT22;14235;48.532;8.722;2024-02-15T13:32:57;14.80;99.90
26589;DHT22;14235;48.532;8.722;2024-02-15T13:35:23;13.70;99.90
26589;DHT22;14235;48.532;8.722;2024-02-15T13:37:56;13.70;99.90
26589;DHT22;14235;48.532;8.722;2024-02-15T13:40:25;14.30;99.90
26589;DHT22;14235;48.532;8.722;2024-02-15T13:42:55;14.40;99.90
26589;DHT22;14235;48.532;8.722;2024-02-15T13:45:27;14.60;99.90
26589;DHT22;14235;48.532;8.722;2024-02-15T13:47:59;13.80;99.90
26589;DHT22;14235;48.532;8.722;2024-02-15T13:50:29;14.00;99.90
26589;DHT22;14235;48.532;8.722;2024-02-15T13:52:55;14.70;99.90
26589;DHT22;14235;48.532;8.722;2024-02-15T13:55:21;14.10;99.90
26589;DHT22;14235;48.532;8.722;2024-02-15T13:57:47;14.20;99.90
26589;DHT22;14235;48.532;8.722;2024-02-15T14:00:14;14.80;99.90
26589;DHT22;14235;48.532;8.722;2024-02-15T14:02:56;14.20;99.90
26589;DHT22;14235;48.532;8.722;2024-02-15T14:05:23;14.70;99.90
26589;DHT22;14235;48.532;8.722;2024-02-15T14:07:51;14.40;99.90
26589;DHT22;14235;48.532;8.722;2024-02-15T14:10:21;14.80;99.90
26589;DHT22;14235;48.532;8.722;2024-02-15T14:12:47;14.90;99.90
26589;DHT22;14235;48.532;8.722;2024-02-15T14:17:40;14.70;99.90
26589;DHT22;14235;48.532;8.722;2024-02-15T14:20:06;14.70;99.90
26589;DHT22;14235;48.532;8.722;2024-02-15T14:22:34;14.80;99.90
26589;DHT22;14235;48.532;8.722;2024-02-15T14:25:01;14.80;99.90
26589;DHT22;14235;48.532;8.722;2024-02-15T14:27:27;15.00;99.90
26589;DHT22;14235;48.532;8.722;2024-02-15T14:29:52;15.10;99.90
26589;DHT22;14235;48.532;8.722;2024-02-15T14:32:37;15.40;99.90
26589;DHT22;14235;48.532;8.722;2024-02-15T14:35:22;14.90;99.90
26589;DHT22;14235;48.532;8.722;2024-02-15T14:37:49;15.00;99.90
26589;DHT22;14235;48.532;8.722;2024-02-15T14:40:14;15.30;99.90
26589;DHT22;14235;48.532;8.722;2024-02-15T14:42:40;14.90;99.90
26589;DHT22;14235;48.532;8.722;2024-02-15T14:45:11;15.10;99.90
26589;DHT22;14235;48.532;8.722;2024-02-15T14:47:37;14.80;99.90
26589;DHT22;14235;48.532;8.722;2024-02-15T14:50:04;15.00;99.90
26589;DHT22;14235;48.532;8.722;2024-02-15T14:52:36;14.70;99.90
26589;DHT22;14235;48.532;8.722;2024-02-15T14:55:05;14.70;99.90
26589;DHT22;14235;48.532;8.722;2024-02-15T14:57:35;14.60;99.90
26589;DHT22;14235;48.532;8.722;2024-02-15T15:00:05;14.60;99.90
26589;DHT22;14235;48.532;8.722;2024-02-15T15:02:38;14.50;99.90
26589;DHT22;14235;48.532;8.722;2024-02-15T15:05:04;14.80;99.90
26589;DHT22;14235;48.532;8.722;2024-02-15T15:08:08;14.50;99.90
26589;DHT22;14235;48.532;8.722;2024-02-15T15:10:52;14.50;99.90
26589;DHT22;14235;48.532;8.722;2024-02-15T15:13:36;14.80;99.90
26589;DHT22;14235;48.532;8.722;2024-02-15T15:16:03;14.50;99.90
26589;DHT22;14235;48.532;8.722;2024-02-15T15:18:29;14.30;99.90
26589;DHT22;14235;48.532;8.722;2024-02-15T15:20:57;14.30;99.90
26589;DHT22;14235;48.532;8.722;2024-02-15T15:23:23;14.40;99.90
26589;DHT22;14235;48.532;8.722;2024-02-15T15:25:49;14.60;99.90
26589;DHT22;14235;48.532;8.722;2024-02-15T15:28:14;14.40;99.90
26589;DHT22;14235;48.532;8.722;2024-02-15T15:30:40;14.60;99.90
26589;DHT22;14235;48.532;8.722;2024-02-15T15:33:06;13.90;99.90
26589;DHT22;14235;48.532;8.722;2024-02-15T15:35:34;14.00;99.90
26589;DHT22;14235;48.532;8.722;2024-02-15T15:38:00;14.60;99.90
26589;DHT22;14235;48.532;8.722;2024-02-15T15:40:26;13.80;99.90
26589;DHT22;14235;48.532;8.722;2024-02-15T15:42:52;14.20;99.90
26589;DHT22;14235;48.532;8.722;2024-02-15T15:45:17;14.00;99.90
26589;DHT22;14235;48.532;8.722;2024-02-15T15:47:43;13.90;99.90
26589;DHT22;14235;48.532;8.722;2024-02-15T15:50:09;13.60;99.90
26589;DHT22;14235;48.532;8.722;2024-02-15T15:52:37;13.40;99.90
26589;DHT22;14235;48.532;8.722;2024-02-15T15:55:07;13.60;99.90
26589;DHT22;14235;48.532;8.722;2024-02-15T15:57:42;13.30;99.90